createdAt,value
2022-10-20T00:01:53.693Z,9.31
2022-10-20T00:04:41.800Z,9.28
2022-10-20T00:07:29.851Z,9.15
2022-10-20T00:10:18.310Z,9.24
2022-10-20T00:13:06.700Z,9.23
2022-10-20T00:15:57.373Z,9.14
2022-10-20T00:18:46.669Z,9.12
2022-10-20T00:21:34.784Z,9.00
2022-10-20T00:24:25.515Z,8.95
2022-10-20T00:27:13.643Z,8.90
2022-10-20T00:30:02.012Z,8.87
2022-10-20T00:32:50.105Z,8.87
2022-10-20T00:35:42.212Z,8.83
2022-10-20T00:38:30.882Z,8.75
2022-10-20T00:41:24.384Z,8.80
2022-10-20T00:44:52.362Z,8.78
2022-10-20T00:47:54.746Z,8.78
2022-10-20T00:50:50.072Z,8.80
2022-10-20T00:53:38.646Z,8.79
2022-10-20T00:56:30.163Z,8.65
2022-10-20T00:59:27.074Z,8.51
2022-10-20T01:02:15.248Z,8.48
2022-10-20T01:05:05.030Z,8.39
2022-10-20T01:07:53.264Z,8.38
2022-10-20T01:11:03.469Z,8.53
2022-10-20T01:14:27.774Z,8.46
2022-10-20T01:17:34.780Z,8.43
2022-10-20T01:20:39.611Z,8.34
2022-10-20T01:24:23.942Z,8.29
2022-10-20T01:27:51.089Z,8.18
2022-10-20T01:30:47.148Z,8.23
2022-10-20T01:33:55.263Z,8.30
2022-10-20T01:37:08.166Z,8.38
2022-10-20T01:40:26.899Z,8.37
2022-10-20T01:43:18.708Z,8.35
2022-10-20T01:46:09.485Z,8.21
2022-10-20T01:49:00.572Z,8.17
2022-10-20T01:51:48.869Z,8.22
2022-10-20T01:54:36.742Z,8.18
2022-10-20T01:58:02.454Z,8.14
2022-10-20T02:00:53.216Z,8.27
2022-10-20T02:03:53.816Z,8.30
2022-10-20T02:06:53.354Z,8.16
2022-10-20T02:10:00.711Z,8.24
2022-10-20T02:12:57.181Z,8.40
2022-10-20T02:15:54.096Z,8.28
2022-10-20T02:18:44.080Z,8.35
2022-10-20T02:21:32.373Z,8.27
2022-10-20T02:24:26.407Z,8.35
2022-10-20T02:27:26.419Z,8.20
2022-10-20T02:30:18.199Z,8.14
2022-10-20T02:33:07.817Z,8.09
2022-10-20T02:35:59.395Z,8.08
2022-10-20T02:38:47.898Z,8.13
2022-10-20T02:41:36.769Z,8.22
2022-10-20T02:44:24.819Z,8.17
2022-10-20T02:47:12.600Z,8.09
2022-10-20T02:50:01.920Z,8.13
2022-10-20T02:52:53.065Z,8.15
2022-10-20T02:55:42.732Z,8.09
2022-10-20T02:58:30.900Z,8.13
2022-10-20T03:01:18.922Z,8.03
2022-10-20T03:04:07.527Z,8.15
2022-10-20T03:06:55.781Z,8.16
2022-10-20T03:09:44.546Z,8.15
2022-10-20T03:12:32.782Z,8.20
2022-10-20T03:15:21.021Z,8.15
2022-10-20T03:18:09.304Z,8.11
2022-10-20T03:20:57.632Z,8.17
2022-10-20T03:23:46.266Z,8.21
2022-10-20T03:26:34.446Z,8.23
2022-10-20T03:29:22.238Z,8.20
2022-10-20T03:32:10.183Z,8.05
2022-10-20T03:35:01.225Z,8.08
2022-10-20T03:37:49.158Z,7.96
2022-10-20T03:40:37.155Z,7.98
2022-10-20T03:43:25.196Z,7.88
2022-10-20T03:46:13.017Z,7.95
2022-10-20T03:49:01.180Z,8.01
2022-10-20T03:51:49.250Z,8.06
2022-10-20T03:54:37.724Z,8.07
2022-10-20T03:57:28.500Z,8.10
2022-10-20T04:00:18.202Z,8.03
2022-10-20T04:03:06.787Z,8.08
2022-10-20T04:05:54.974Z,8.10
2022-10-20T04:08:43.221Z,8.12
2022-10-20T04:11:32.965Z,8.16
2022-10-20T04:14:21.115Z,8.11
2022-10-20T04:17:10.061Z,8.17
2022-10-20T04:19:58.273Z,8.09
2022-10-20T04:22:46.485Z,8.13
2022-10-20T04:25:34.581Z,8.18
2022-10-20T04:28:22.508Z,8.24
2022-10-20T04:31:10.639Z,8.42
2022-10-20T04:33:58.504Z,8.28
2022-10-20T04:36:46.480Z,8.41
2022-10-20T04:39:34.695Z,8.28
2022-10-20T04:42:23.819Z,8.20
2022-10-20T04:45:11.871Z,8.02
2022-10-20T04:48:00.380Z,8.13
2022-10-20T04:51:06.442Z,8.10
2022-10-20T04:54:00.515Z,8.10
2022-10-20T04:56:51.781Z,8.16
2022-10-20T04:59:39.907Z,8.05
2022-10-20T05:02:28.466Z,8.06
2022-10-20T05:05:16.602Z,8.00
2022-10-20T05:08:07.441Z,8.05
2022-10-20T05:10:55.548Z,8.02
2022-10-20T05:13:44.413Z,8.06
2022-10-20T05:16:33.024Z,8.18
2022-10-20T05:19:21.221Z,8.13
2022-10-20T05:22:09.560Z,8.14
2022-10-20T05:25:04.010Z,8.19
2022-10-20T05:28:01.192Z,8.18
2022-10-20T05:30:53.244Z,8.14
2022-10-20T05:33:55.133Z,8.22
2022-10-20T05:36:46.555Z,8.23
2022-10-20T05:39:41.296Z,8.25
2022-10-20T05:42:29.971Z,8.21
2022-10-20T05:49:25.895Z,8.35
2022-10-20T05:52:14.197Z,8.51
2022-10-20T05:55:03.297Z,8.52
2022-10-20T05:57:52.276Z,8.53
2022-10-20T06:00:52.302Z,8.50
2022-10-20T06:03:43.638Z,8.56
2022-10-20T06:06:32.008Z,8.65
2022-10-20T06:09:32.296Z,8.78
2022-10-20T06:12:25.990Z,8.86
2022-10-20T06:15:14.727Z,9.05
2022-10-20T06:21:49.588Z,9.27
2022-10-20T06:24:43.509Z,9.42
2022-10-20T06:27:34.389Z,9.45
2022-10-20T06:30:23.336Z,9.68
2022-10-20T06:33:16.378Z,9.76
2022-10-20T06:36:04.994Z,10.01
2022-10-20T06:39:03.679Z,10.15
2022-10-20T06:41:57.518Z,10.19
2022-10-20T06:44:47.218Z,10.35
2022-10-20T06:47:35.695Z,10.51
2022-10-20T06:50:25.660Z,10.62
2022-10-20T06:53:17.260Z,10.57
2022-10-20T06:56:14.105Z,10.91
2022-10-20T06:59:04.854Z,11.05
2022-10-20T07:01:55.559Z,11.47
2022-10-20T07:04:46.832Z,11.19
2022-10-20T07:07:38.751Z,11.12
2022-10-20T07:10:30.158Z,11.24
2022-10-20T07:13:18.568Z,11.39
2022-10-20T07:16:09.664Z,11.29
2022-10-20T07:18:58.776Z,11.40
2022-10-20T07:21:47.003Z,11.44
2022-10-20T07:24:40.212Z,11.38
2022-10-20T07:27:29.031Z,11.45
2022-10-20T07:30:17.925Z,11.75
2022-10-20T07:33:06.411Z,11.90
2022-10-20T07:35:54.590Z,12.41
2022-10-20T07:38:44.210Z,13.11
2022-10-20T07:41:33.688Z,13.42
2022-10-20T07:44:22.588Z,13.28
2022-10-20T07:47:13.233Z,12.84
2022-10-20T07:50:04.235Z,12.72
2022-10-20T07:52:53.347Z,12.60
2022-10-20T07:55:41.814Z,12.69
2022-10-20T07:58:30.600Z,13.18
2022-10-20T08:01:21.984Z,13.02
2022-10-20T08:04:10.591Z,13.48
2022-10-20T08:07:00.173Z,13.53
2022-10-20T08:09:50.094Z,12.33
2022-10-20T08:12:38.846Z,12.59
2022-10-20T08:15:27.360Z,12.26
2022-10-20T08:18:19.034Z,12.06
2022-10-20T08:21:17.941Z,12.30
2022-10-20T08:24:06.529Z,11.70
2022-10-20T08:26:54.691Z,12.00
2022-10-20T08:29:59.876Z,11.89
2022-10-20T08:32:54.978Z,12.04
2022-10-20T08:35:43.118Z,12.51
2022-10-20T08:38:32.143Z,12.43
2022-10-20T08:41:38.707Z,11.91
2022-10-20T08:44:35.985Z,11.88
2022-10-20T08:47:37.578Z,11.83
2022-10-20T08:50:28.970Z,11.84
2022-10-20T08:54:00.080Z,11.59
2022-10-20T08:56:50.034Z,11.52
2022-10-20T08:59:39.629Z,11.53
2022-10-20T09:02:33.624Z,11.39
2022-10-20T09:05:34.983Z,11.35
2022-10-20T09:08:37.517Z,11.03
2022-10-20T09:11:36.513Z,11.35
2022-10-20T09:14:24.862Z,11.44
2022-10-20T09:17:19.428Z,11.61
2022-10-20T09:20:20.705Z,11.81
2022-10-20T09:23:40.055Z,11.58
2022-10-20T09:26:58.061Z,11.73
2022-10-20T09:29:47.535Z,10.97
2022-10-20T09:32:47.086Z,11.78
2022-10-20T09:35:39.946Z,12.20
2022-10-20T09:38:33.232Z,12.20
2022-10-20T09:41:40.378Z,11.65
2022-10-20T09:44:29.085Z,12.29
2022-10-20T09:47:18.044Z,11.78
2022-10-20T09:50:09.248Z,11.56
2022-10-20T09:53:01.342Z,11.98
2022-10-20T09:55:51.275Z,11.45
2022-10-20T09:58:40.310Z,11.23
2022-10-20T10:01:29.245Z,11.56
2022-10-20T10:04:37.442Z,12.07
2022-10-20T10:07:25.602Z,11.62
2022-10-20T10:10:26.026Z,11.38
2022-10-20T10:13:29.950Z,11.86
2022-10-20T10:16:24.542Z,11.93
2022-10-20T10:19:21.481Z,12.39
2022-10-20T10:22:13.515Z,12.36
2022-10-20T10:25:04.746Z,11.65
2022-10-20T10:31:24.311Z,12.15
2022-10-20T10:34:16.249Z,12.53
2022-10-20T10:37:04.822Z,12.26
2022-10-20T10:39:53.659Z,12.47
2022-10-20T10:43:13.285Z,12.45
2022-10-20T10:46:09.119Z,12.23
2022-10-20T10:49:16.837Z,12.72
2022-10-20T10:52:25.902Z,12.19
2022-10-20T10:55:53.278Z,12.29
2022-10-20T10:58:54.984Z,12.83
2022-10-20T11:02:01.116Z,12.69
2022-10-20T11:05:43.646Z,12.63
2022-10-20T11:09:07.893Z,12.14
2022-10-20T11:12:41.731Z,12.58
2022-10-20T11:16:11.380Z,12.80
2022-10-20T11:18:59.296Z,13.21
2022-10-20T11:22:16.675Z,13.18
2022-10-20T11:25:26.697Z,13.42
2022-10-20T11:28:45.112Z,13.71
2022-10-20T11:32:19.200Z,13.69
2022-10-20T11:35:42.737Z,13.70
2022-10-20T11:39:00.733Z,13.86
2022-10-20T11:41:52.251Z,13.31
2022-10-20T11:44:44.979Z,13.40
2022-10-20T11:47:41.008Z,13.13
2022-10-20T11:50:30.622Z,13.68
2022-10-20T11:53:37.806Z,13.75
2022-10-20T11:57:03.225Z,12.80
2022-10-20T12:00:32.258Z,13.27
2022-10-20T12:03:41.563Z,13.79
2022-10-20T12:10:15.036Z,13.44
2022-10-20T12:13:22.117Z,13.40
2022-10-20T12:16:10.906Z,12.69
2022-10-20T12:19:20.012Z,12.42
2022-10-20T12:22:17.381Z,12.53
2022-10-20T12:25:05.426Z,12.52
2022-10-20T12:28:25.265Z,12.49
2022-10-20T12:31:14.309Z,12.50
2022-10-20T12:34:04.078Z,12.74
2022-10-20T12:37:16.579Z,13.26
2022-10-20T12:40:08.022Z,13.46
2022-10-20T12:42:56.831Z,13.70
2022-10-20T12:45:49.734Z,13.58
2022-10-20T12:48:46.412Z,13.75
2022-10-20T12:51:54.443Z,13.95
2022-10-20T12:54:49.708Z,13.58
2022-10-20T12:57:45.289Z,13.55
2022-10-20T13:00:55.960Z,13.70
2022-10-20T13:03:56.495Z,14.16
2022-10-20T13:06:45.978Z,13.99
2022-10-20T13:10:09.968Z,13.70
2022-10-20T13:13:10.370Z,13.58
2022-10-20T13:16:20.987Z,13.35
2022-10-20T13:20:11.720Z,13.75
2022-10-20T13:23:11.770Z,14.32
2022-10-20T13:26:32.860Z,14.21
2022-10-20T13:30:02.749Z,14.02
2022-10-20T13:34:04.540Z,14.02
2022-10-20T13:40:38.023Z,13.48
2022-10-20T13:44:07.822Z,13.67
2022-10-20T13:51:44.082Z,14.00
2022-10-20T13:55:14.656Z,13.74
2022-10-20T13:58:26.552Z,13.80
2022-10-20T14:01:26.642Z,13.48
2022-10-20T14:04:38.047Z,13.44
2022-10-20T14:08:04.639Z,13.43
2022-10-20T14:11:11.500Z,13.01
2022-10-20T14:14:00.192Z,13.04
2022-10-20T14:17:12.152Z,13.35
2022-10-20T14:20:44.382Z,13.58
2022-10-20T14:25:22.105Z,13.79
2022-10-20T14:27:12.404Z,13.72
2022-10-20T14:30:18.665Z,13.74
2022-10-20T14:33:14.900Z,14.15
2022-10-20T14:36:21.315Z,14.32
2022-10-20T14:39:42.820Z,14.28
2022-10-20T14:42:44.158Z,14.40
2022-10-20T14:45:41.823Z,14.24
2022-10-20T14:48:45.259Z,13.71
2022-10-20T14:51:45.101Z,13.48
2022-10-20T14:54:39.231Z,13.74
2022-10-20T14:57:38.198Z,13.94
2022-10-20T15:00:35.258Z,14.10
2022-10-20T15:03:23.824Z,14.04
2022-10-20T15:06:18.040Z,14.16
2022-10-20T15:09:06.121Z,14.29
2022-10-20T15:11:54.057Z,14.19
2022-10-20T15:14:48.137Z,14.24
2022-10-20T15:17:50.726Z,14.16
2022-10-20T15:20:43.787Z,14.26
2022-10-20T15:23:32.429Z,14.25
2022-10-20T15:26:20.586Z,14.12
2022-10-20T15:29:09.855Z,13.85
2022-10-20T15:32:02.202Z,13.93
2022-10-20T15:34:50.173Z,13.92
2022-10-20T15:37:38.086Z,13.97
2022-10-20T15:40:26.220Z,13.92
2022-10-20T15:43:17.589Z,13.78
2022-10-20T15:46:07.099Z,13.84
2022-10-20T15:48:55.489Z,13.94
2022-10-20T15:51:50.487Z,13.82
2022-10-20T15:54:38.705Z,13.74
2022-10-20T15:57:26.683Z,13.58
2022-10-20T16:00:15.341Z,13.12
2022-10-20T16:03:05.017Z,13.22
2022-10-20T16:05:54.029Z,13.36
2022-10-20T16:08:44.630Z,13.09
2022-10-20T16:11:32.822Z,13.12
2022-10-20T16:14:20.905Z,12.90
2022-10-20T16:17:09.234Z,12.94
2022-10-20T16:19:57.436Z,12.86
2022-10-20T16:22:46.203Z,12.83
2022-10-20T16:25:37.102Z,12.87
2022-10-20T16:28:25.529Z,12.63
2022-10-20T16:31:18.697Z,12.34
2022-10-20T16:34:07.087Z,12.29
2022-10-20T16:36:55.600Z,12.27
2022-10-20T16:39:46.182Z,12.18
2022-10-20T16:42:36.867Z,12.20
2022-10-20T16:45:25.209Z,12.07
2022-10-20T16:48:16.402Z,12.15
2022-10-20T16:51:41.187Z,12.40
2022-10-20T16:57:40.689Z,12.60
2022-10-20T17:00:29.680Z,12.70
2022-10-20T17:03:24.706Z,12.89
2022-10-20T17:06:18.645Z,12.85
2022-10-20T17:09:08.371Z,12.87
2022-10-20T17:11:57.512Z,12.52
2022-10-20T17:14:45.718Z,12.45
2022-10-20T17:17:33.930Z,12.19
2022-10-20T17:20:23.480Z,12.13
2022-10-20T17:23:12.173Z,11.98
2022-10-20T17:26:02.747Z,12.03
2022-10-20T17:28:57.507Z,12.12
2022-10-20T17:31:45.693Z,12.28
2022-10-20T17:34:34.029Z,12.50
2022-10-20T17:37:22.145Z,12.54
2022-10-20T17:40:10.706Z,12.71
2022-10-20T17:42:58.743Z,12.69
2022-10-20T17:46:12.529Z,12.86
2022-10-20T17:49:03.561Z,13.07
2022-10-20T17:51:51.627Z,13.09
2022-10-20T17:54:39.737Z,13.20
2022-10-20T17:57:30.768Z,12.90
2022-10-20T18:00:26.884Z,13.04
2022-10-20T18:03:25.843Z,13.14
2022-10-20T18:06:18.920Z,12.95
2022-10-20T18:09:11.751Z,12.67
2022-10-20T18:12:03.035Z,12.46
2022-10-20T18:14:51.437Z,12.01
2022-10-20T18:17:39.339Z,11.86
2022-10-20T18:20:30.908Z,11.75
2022-10-20T18:23:23.683Z,11.58
2022-10-20T18:26:36.410Z,11.73
2022-10-20T18:29:26.485Z,11.80
2022-10-20T18:32:35.357Z,12.04
2022-10-20T18:35:23.774Z,12.14
2022-10-20T18:38:12.116Z,12.39
2022-10-20T18:41:14.077Z,12.48
2022-10-20T18:44:03.755Z,12.29
2022-10-20T18:46:58.473Z,12.57
2022-10-20T18:49:49.202Z,12.55
2022-10-20T18:52:37.672Z,12.38
2022-10-20T18:55:25.852Z,12.50
2022-10-20T18:58:14.333Z,12.92
2022-10-20T19:01:10.948Z,12.83
2022-10-20T19:04:00.308Z,12.58
2022-10-20T19:06:49.474Z,12.69
2022-10-20T19:09:40.585Z,12.69
2022-10-20T19:12:28.598Z,12.79
2022-10-20T19:15:17.480Z,13.01
2022-10-20T19:18:05.823Z,13.12
2022-10-20T19:21:03.420Z,13.17
2022-10-20T19:23:57.822Z,13.10
2022-10-20T19:27:02.162Z,13.10
2022-10-20T19:29:56.257Z,13.07
2022-10-20T19:32:44.716Z,13.21
2022-10-20T19:35:33.219Z,13.22
2022-10-20T19:38:21.765Z,13.31
2022-10-20T19:41:09.939Z,13.29
2022-10-20T19:43:58.108Z,12.97
2022-10-20T19:46:50.322Z,12.82
2022-10-20T19:49:41.704Z,12.99
2022-10-20T19:52:29.713Z,12.98
2022-10-20T19:55:17.911Z,13.04
2022-10-20T19:58:06.143Z,12.93
2022-10-20T20:00:59.586Z,12.95
2022-10-20T20:03:48.372Z,13.02
2022-10-20T20:06:41.974Z,12.97
2022-10-20T20:09:31.163Z,13.09
2022-10-20T20:12:19.397Z,13.01
2022-10-20T20:15:08.077Z,13.05
2022-10-20T20:18:02.500Z,13.07
2022-10-20T20:20:50.826Z,13.02
2022-10-20T20:23:58.847Z,12.81
2022-10-20T20:27:18.775Z,12.75
2022-10-20T20:30:08.120Z,12.85
2022-10-20T20:33:08.904Z,12.99
2022-10-20T20:36:02.075Z,12.91
2022-10-20T20:38:55.128Z,12.78
2022-10-20T20:41:54.180Z,12.66
2022-10-20T20:44:44.376Z,12.92
2022-10-20T20:47:35.277Z,13.05
2022-10-20T20:50:26.526Z,13.16
2022-10-20T20:53:14.358Z,12.52
2022-10-20T20:56:18.119Z,12.24
2022-10-20T20:59:19.868Z,12.34
2022-10-20T21:02:11.658Z,12.27
2022-10-20T21:04:59.842Z,12.46
2022-10-20T21:07:48.031Z,12.56
2022-10-20T21:10:37.196Z,12.71
2022-10-20T21:13:31.554Z,12.90
2022-10-20T21:16:26.863Z,13.09
2022-10-20T21:19:17.481Z,13.14
2022-10-20T21:22:08.161Z,13.15
2022-10-20T21:24:56.462Z,13.31
2022-10-20T21:27:47.179Z,13.22
2022-10-20T21:30:35.294Z,13.03
2022-10-20T21:33:23.741Z,13.23
2022-10-20T21:36:15.126Z,13.15
2022-10-20T21:39:11.593Z,13.34
2022-10-20T21:41:59.858Z,13.19
2022-10-20T21:44:50.515Z,13.43
2022-10-20T21:47:41.092Z,13.54
2022-10-20T21:50:29.282Z,13.66
2022-10-20T21:53:18.838Z,13.63
2022-10-20T21:56:08.210Z,13.42
2022-10-20T21:58:56.781Z,13.32
2022-10-20T22:01:46.328Z,13.43
2022-10-20T22:04:34.405Z,13.27
2022-10-20T22:07:25.101Z,13.08
2022-10-20T22:10:24.172Z,13.39
2022-10-20T22:13:12.399Z,13.48
2022-10-20T22:16:10.277Z,13.63
2022-10-20T22:19:04.679Z,13.46
2022-10-20T22:21:53.936Z,13.24
2022-10-20T22:24:42.090Z,13.41
2022-10-20T22:27:41.860Z,13.53
2022-10-20T22:30:30.757Z,13.72
2022-10-20T22:33:19.292Z,13.77
2022-10-20T22:36:09.744Z,13.90
2022-10-20T22:38:57.982Z,14.02
2022-10-20T22:41:46.320Z,14.06
2022-10-20T22:44:34.670Z,13.74
2022-10-20T22:47:22.819Z,13.80
2022-10-20T22:50:11.112Z,13.87
2022-10-20T22:52:59.382Z,13.79
2022-10-20T22:55:48.133Z,13.97
2022-10-20T22:58:36.825Z,13.92
2022-10-20T23:01:25.205Z,13.87
2022-10-20T23:04:14.466Z,13.74
2022-10-20T23:09:50.853Z,13.78
2022-10-20T23:12:41.471Z,13.89
2022-10-20T23:15:29.720Z,13.90
2022-10-20T23:18:18.319Z,13.94
2022-10-20T23:21:07.200Z,14.00
2022-10-20T23:23:55.644Z,14.10
2022-10-20T23:26:44.077Z,14.06
2022-10-20T23:29:32.693Z,14.12
2022-10-20T23:32:20.898Z,14.25
2022-10-20T23:35:09.448Z,14.30
2022-10-20T23:38:09.220Z,13.82
2022-10-20T23:40:57.094Z,13.17
2022-10-20T23:43:45.338Z,12.99
2022-10-20T23:46:35.029Z,13.21
2022-10-20T23:49:23.192Z,12.85
2022-10-20T23:52:11.073Z,12.69
2022-10-20T23:55:02.031Z,12.84
2022-10-20T23:57:50.892Z,12.75
